Time;durP1;ratioP1;P1;durP2;ratioP2;P2;SDS_P1;SDS_P2;PMS_P1;PMS_P2;Temp;Humidity;BMP_temperature;BMP_pressure;BME280_temperature;BME280_humidity;BME280_pressure;Samples;Min_cycle;Max_cycle;Signal;HPM_P1;HPM_P2
2023/05/22 00:00:25;;;;;;;5.47;2.83;;;13.60;99.90;;;;;;5082317;28;20192;-78
2023/05/22 00:02:56;;;;;;;6.03;2.90;;;13.70;99.90;;;;;;5092533;28;20208;-79
2023/05/22 00:05:27;;;;;;;5.88;2.33;;;13.70;99.90;;;;;;5088679;28;20189;-79
2023/05/22 00:08:01;;;;;;;8.40;3.00;;;13.80;99.90;;;;;;5091937;28;20200;-77
2023/05/22 00:10:32;;;;;;;6.57;2.72;;;13.90;99.90;;;;;;5094048;28;20196;-77
2023/05/22 00:13:03;;;;;;;5.28;2.92;;;14.00;99.90;;;;;;5092080;28;20199;-79
2023/05/22 00:15:37;;;;;;;6.40;2.78;;;14.00;99.90;;;;;;5093422;28;20224;-83
2023/05/22 00:18:08;;;;;;;9.80;2.88;;;14.20;99.90;;;;;;5094174;28;20210;-82
2023/05/22 00:20:39;;;;;;;9.80;3.20;;;14.20;99.90;;;;;;5090179;28;20196;-81
2023/05/22 00:23:11;;;;;;;7.40;3.20;;;14.40;99.90;;;;;;5092688;28;20204;-80
2023/05/22 00:25:42;;;;;;;6.95;3.45;;;14.50;99.90;;;;;;5090516;28;20196;-82
2023/05/22 00:28:13;;;;;;;7.40;3.20;;;14.50;99.90;;;;;;5091353;28;20618;-84
2023/05/22 00:30:54;;;;;;;7.03;3.00;;;14.50;99.90;;;;;;5077586;28;20228;-79
2023/05/22 00:33:25;;;;;;;6.47;2.70;;;14.50;99.90;;;;;;5089002;28;20196;-79
2023/05/22 00:35:56;;;;;;;5.43;2.58;;;14.60;99.90;;;;;;5091433;28;20188;-83
2023/05/22 00:38:34;;;;;;;8.90;2.72;;;14.70;99.90;;;;;;5091338;28;20196;-81
2023/05/22 00:41:06;;;;;;;4.80;2.30;;;14.80;99.90;;;;;;5093792;28;20578;-80
2023/05/22 00:43:37;;;;;;;9.20;3.38;;;14.90;99.90;;;;;;5089494;28;20196;-81
2023/05/22 00:46:11;;;;;;;6.13;2.50;;;15.10;99.90;;;;;;5083166;28;20200;-82
2023/05/22 00:48:42;;;;;;;7.47;2.33;;;15.20;99.90;;;;;;5092947;28;20646;-86
2023/05/22 00:51:14;;;;;;;6.80;2.70;;;15.10;99.90;;;;;;5090952;28;20238;-82
2023/05/22 00:53:45;;;;;;;5.93;2.40;;;15.20;99.90;;;;;;5090962;28;20207;-83
2023/05/22 00:56:17;;;;;;;5.10;2.17;;;15.30;99.90;;;;;;5089151;28;20192;-81
2023/05/22 00:58:48;;;;;;;5.47;2.38;;;15.40;99.90;;;;;;5093599;28;20188;-81
2023/05/22 01:01:21;;;;;;;6.32;2.28;;;15.60;99.90;;;;;;5093433;28;20239;-81
2023/05/22 01:03:54;;;;;;;4.78;2.05;;;15.50;99.90;;;;;;5092762;28;20232;-80
2023/05/22 01:06:30;;;;;;;4.25;2.10;;;15.50;99.90;;;;;;5093457;28;20190;-81
2023/05/22 01:09:03;;;;;;;5.85;1.77;;;15.60;99.90;;;;;;5093389;28;20196;-80
2023/05/22 01:11:39;;;;;;;2.83;1.65;;;15.60;99.90;;;;;;5091115;28;20212;-81
2023/05/22 01:14:16;;;;;;;5.53;1.95;;;15.60;99.90;;;;;;5093011;28;20195;-82
2023/05/22 01:16:54;;;;;;;5.57;1.95;;;15.60;99.90;;;;;;5093091;28;20192;-83
2023/05/22 01:19:41;;;;;;;2.47;1.52;;;15.90;99.90;;;;;;5093272;28;20188;-83
2023/05/22 01:22:29;;;;;;;4.20;2.00;;;16.00;99.90;;;;;;5093400;28;20241;-93
2023/05/22 01:25:29;;;;;;;4.00;1.40;;;16.20;99.90;;;;;;5093240;28;20227;-84
2023/05/22 01:28:14;;;;;;;2.53;1.50;;;16.30;99.90;;;;;;5093338;28;20192;-83
2023/05/22 01:30:51;;;;;;;3.50;1.50;;;16.30;99.90;;;;;;5091839;28;20666;-81
2023/05/22 01:33:26;;;;;;;5.90;1.73;;;16.30;99.90;;;;;;5093215;28;20188;-81
2023/05/22 01:36:02;;;;;;;6.13;1.52;;;16.40;99.90;;;;;;5093098;28;20195;-82
2023/05/22 01:38:34;;;;;;;5.78;1.75;;;16.50;99.90;;;;;;5093240;28;20214;-80
2023/05/22 01:41:05;;;;;;;3.72;1.45;;;16.50;99.90;;;;;;5093455;28;20203;-81
2023/05/22 01:43:38;;;;;;;5.97;1.40;;;16.70;99.90;;;;;;5093113;28;20197;-81
2023/05/22 01:46:11;;;;;;;6.65;1.65;;;16.80;99.90;;;;;;5092805;28;20199;-83
2023/05/22 01:48:42;;;;;;;3.35;1.40;;;16.80;99.90;;;;;;5092003;28;20210;-86
2023/05/22 01:51:19;;;;;;;6.75;1.45;;;16.80;99.90;;;;;;5092968;28;20582;-88
2023/05/22 01:53:54;;;;;;;5.93;1.35;;;17.00;99.90;;;;;;5092916;28;20640;-85
2023/05/22 01:56:34;;;;;;;5.93;1.40;;;17.00;99.90;;;;;;5093034;28;20192;-82
2023/05/22 01:59:11;;;;;;;5.30;1.30;;;17.10;99.90;;;;;;5093051;28;20188;-82
2023/05/22 02:01:46;;;;;;;3.88;1.35;;;17.20;99.90;;;;;;5092871;28;20188;-87
2023/05/22 02:04:20;;;;;;;5.03;1.15;;;17.30;99.90;;;;;;5092791;28;20231;-85
2023/05/22 02:06:54;;;;;;;2.97;1.02;;;17.40;99.90;;;;;;5090674;28;20200;-83
2023/05/22 02:09:29;;;;;;;2.30;0.95;;;17.50;99.90;;;;;;5096664;28;20196;-84
2023/05/22 02:12:01;;;;;;;1.63;0.90;;;17.50;99.90;;;;;;5096547;28;20232;-85
2023/05/22 02:14:33;;;;;;;4.93;1.15;;;17.40;99.90;;;;;;5096247;28;20188;-83
2023/05/22 02:17:07;;;;;;;2.72;1.10;;;17.30;99.90;;;;;;5096651;28;20195;-82
2023/05/22 02:19:38;;;;;;;3.20;0.95;;;17.20;99.90;;;;;;5096752;28;20191;-88
2023/05/22 02:22:12;;;;;;;1.95;1.00;;;17.30;99.90;;;;;;5096657;28;20199;-90
2023/05/22 02:24:46;;;;;;;3.78;0.95;;;17.50;99.90;;;;;;5096141;28;20192;-82
2023/05/22 02:27:17;;;;;;;4.88;1.38;;;17.60;99.90;;;;;;5095571;28;20603;-84
2023/05/22 02:29:49;;;;;;;2.38;1.00;;;17.60;99.90;;;;;;5096020;28;20575;-85
2023/05/22 02:32:22;;;;;;;2.28;0.90;;;17.60;99.90;;;;;;5096458;28;20212;-87
2023/05/22 02:34:53;;;;;;;2.17;1.00;;;17.60;99.90;;;;;;5096517;28;20192;-83
2023/05/22 02:37:24;;;;;;;1.88;0.90;;;17.70;99.90;;;;;;5096050;28;20656;-85
2023/05/22 02:39:55;;;;;;;2.83;1.02;;;17.80;99.90;;;;;;5096118;28;20199;-83
2023/05/22 02:42:26;;;;;;;4.63;1.08;;;17.70;99.90;;;;;;5093922;28;20200;-83
2023/05/22 02:44:57;;;;;;;2.50;1.08;;;17.70;99.90;;;;;;5095796;28;20203;-89
2023/05/22 02:47:30;;;;;;;2.03;1.10;;;17.90;99.90;;;;;;5096333;28;20196;-85
2023/05/22 02:50:01;;;;;;;3.58;1.08;;;18.00;99.90;;;;;;5095882;28;20230;-84
2023/05/22 02:52:33;;;;;;;2.95;1.10;;;18.10;99.90;;;;;;5096432;28;20219;-92
2023/05/22 02:55:06;;;;;;;3.13;1.08;;;18.20;99.90;;;;;;5096211;28;20276;-85
2023/05/22 02:57:37;;;;;;;1.90;1.00;;;18.30;99.90;;;;;;5095699;28;20198;-85
2023/05/22 03:00:10;;;;;;;3.95;1.05;;;18.30;99.90;;;;;;5093436;28;20196;-86
2023/05/22 03:02:43;;;;;;;5.55;1.00;;;18.30;99.90;;;;;;5095601;28;20204;-84
2023/05/22 03:05:16;;;;;;;6.32;1.35;;;18.30;99.90;;;;;;5095387;28;20243;-86
2023/05/22 03:07:47;;;;;;;4.07;1.10;;;18.40;99.90;;;;;;5095636;28;20697;-82
2023/05/22 03:10:19;;;;;;;2.25;0.98;;;18.40;99.90;;;;;;5095503;28;20639;-82
2023/05/22 03:12:50;;;;;;;3.67;1.33;;;18.30;99.90;;;;;;5095279;28;20215;-82
2023/05/22 03:15:22;;;;;;;2.80;1.25;;;18.30;99.90;;;;;;5095482;28;20189;-81
2023/05/22 03:17:55;;;;;;;4.10;0.95;;;18.20;99.90;;;;;;5095291;28;20192;-84
2023/05/22 03:20:26;;;;;;;3.40;0.85;;;18.30;99.90;;;;;;5093442;28;20265;-81
2023/05/22 03:22:57;;;;;;;3.22;0.82;;;18.30;99.90;;;;;;5095419;28;20652;-83
2023/05/22 03:25:28;;;;;;;4.70;1.00;;;18.40;99.90;;;;;;5095378;28;20199;-84
2023/05/22 03:28:00;;;;;;;1.88;0.95;;;18.50;99.90;;;;;;5095201;28;20236;-87
2023/05/22 03:30:31;;;;;;;2.15;0.70;;;18.50;99.90;;;;;;5095112;28;20188;-87
2023/05/22 03:33:04;;;;;;;2.30;0.80;;;18.70;99.90;;;;;;5094979;28;20216;-84
2023/05/22 03:35:35;;;;;;;2.53;0.65;;;18.70;99.90;;;;;;5094908;28;20188;-86
2023/05/22 03:38:06;;;;;;;2.13;0.77;;;18.60;99.90;;;;;;5092281;28;20197;-89
2023/05/22 03:40:38;;;;;;;2.00;0.80;;;18.70;99.90;;;;;;5074779;28;20224;-84
2023/05/22 03:43:09;;;;;;;2.08;0.80;;;18.70;99.90;;;;;;5075773;28;20547;-85
2023/05/22 03:45:40;;;;;;;3.05;0.82;;;18.80;99.90;;;;;;5074588;28;20189;-86
2023/05/22 03:48:13;;;;;;;1.92;0.85;;;18.80;99.90;;;;;;5074635;28;20189;-86
2023/05/22 03:50:44;;;;;;;3.20;0.75;;;18.80;99.90;;;;;;5074886;28;20229;-89
2023/05/22 03:53:15;;;;;;;2.33;0.73;;;18.80;99.90;;;;;;5076861;28;20213;-89
2023/05/22 03:55:47;;;;;;;1.52;0.60;;;18.80;99.90;;;;;;5090095;28;20200;-88
2023/05/22 03:58:18;;;;;;;1.10;0.70;;;18.80;99.90;;;;;;5094770;28;20322;-86
2023/05/22 04:00:49;;;;;;;1.13;0.70;;;18.80;99.90;;;;;;5094551;28;20188;-86
2023/05/22 04:03:22;;;;;;;2.83;0.80;;;18.80;99.90;;;;;;5094415;28;20666;-89
2023/05/22 04:05:53;;;;;;;2.25;0.70;;;18.70;99.90;;;;;;5094407;28;20192;-87
2023/05/22 04:08:24;;;;;;;1.50;0.60;;;18.70;99.90;;;;;;5094670;28;20646;-85
2023/05/22 04:10:55;;;;;;;2.67;0.75;;;18.70;99.90;;;;;;5092969;28;20195;-84
2023/05/22 04:13:26;;;;;;;2.25;0.77;;;18.80;99.90;;;;;;5094530;28;20232;-85
2023/05/22 04:15:58;;;;;;;3.70;0.80;;;18.90;99.90;;;;;;5094577;28;20628;-82
2023/05/22 04:18:31;;;;;;;1.40;0.73;;;18.90;99.90;;;;;;5094274;28;20203;-84
2023/05/22 04:21:02;;;;;;;2.15;0.90;;;18.80;99.90;;;;;;5094168;28;20195;-83
2023/05/22 04:23:33;;;;;;;2.55;0.80;;;18.80;99.90;;;;;;5094123;28;20193;-81
2023/05/22 04:26:04;;;;;;;3.90;0.85;;;18.80;99.90;;;;;;5091593;28;20559;-81
2023/05/22 04:28:36;;;;;;;2.40;0.98;;;18.80;99.90;;;;;;5073751;28;20188;-82
2023/05/22 04:31:07;;;;;;;2.97;0.80;;;18.80;99.90;;;;;;5073276;28;20185;-83
2023/05/22 04:33:40;;;;;;;1.52;0.82;;;18.70;99.90;;;;;;5073621;28;20224;-88
2023/05/22 04:36:11;;;;;;;2.72;0.90;;;18.60;99.90;;;;;;5074122;28;20602;-85
2023/05/22 04:38:43;;;;;;;2.00;0.80;;;18.70;99.90;;;;;;5074597;28;20199;-85
2023/05/22 04:41:16;;;;;;;2.33;0.85;;;18.70;99.90;;;;;;5073576;28;20267;-85
2023/05/22 04:43:48;;;;;;;3.15;0.75;;;18.70;99.90;;;;;;5074575;28;20216;-84
2023/05/22 04:46:19;;;;;;;2.88;0.82;;;18.70;99.90;;;;;;5073559;28;20193;-86
2023/05/22 04:48:52;;;;;;;3.92;1.95;;;18.70;99.90;;;;;;5073512;28;20193;-84
2023/05/22 04:51:23;;;;;;;4.18;1.17;;;18.70;99.90;;;;;;5073516;28;20189;-85
2023/05/22 04:53:57;;;;;;;2.30;0.98;;;18.80;99.90;;;;;;5073228;28;20213;-85
2023/05/22 04:56:29;;;;;;;3.20;0.88;;;18.80;99.90;;;;;;5074887;28;20185;-84
2023/05/22 04:59:00;;;;;;;1.90;0.73;;;18.80;99.90;;;;;;5073468;28;20276;-83
2023/05/22 05:01:31;;;;;;;2.33;0.80;;;18.80;99.90;;;;;;5073428;28;20196;-85
2023/05/22 05:04:04;;;;;;;6.15;1.02;;;18.70;99.90;;;;;;5073378;28;20247;-85
2023/05/22 05:06:36;;;;;;;2.20;0.68;;;18.60;99.90;;;;;;5073534;28;20193;-86
2023/05/22 05:09:09;;;;;;;1.52;0.68;;;18.70;99.90;;;;;;5074849;28;20225;-90
2023/05/22 05:11:40;;;;;;;1.92;0.88;;;18.80;99.90;;;;;;5073890;28;20282;-86
2023/05/22 05:14:11;;;;;;;2.47;0.98;;;18.80;99.90;;;;;;5089731;28;20220;-85
2023/05/22 05:16:43;;;;;;;4.57;0.80;;;18.80;99.90;;;;;;5093339;28;20204;-86
2023/05/22 05:19:16;;;;;;;2.08;0.73;;;18.80;99.90;;;;;;5093574;28;20203;-85
2023/05/22 05:21:48;;;;;;;1.92;0.70;;;18.80;99.90;;;;;;5093418;28;20640;-85
2023/05/22 05:24:20;;;;;;;3.28;0.60;;;18.70;99.90;;;;;;5093232;28;20537;-85
2023/05/22 05:26:52;;;;;;;2.08;0.77;;;18.70;99.90;;;;;;5093469;28;20194;-87
2023/05/22 05:29:23;;;;;;;3.03;0.82;;;18.60;99.90;;;;;;5093573;28;20200;-84
2023/05/22 05:31:54;;;;;;;1.75;0.63;;;18.50;99.90;;;;;;5093341;28;20188;-84
2023/05/22 05:34:27;;;;;;;3.63;0.93;;;18.50;99.90;;;;;;5093310;28;20195;-84
2023/05/22 05:36:58;;;;;;;1.05;0.50;;;18.40;99.90;;;;;;5093635;28;20208;-84
2023/05/22 05:39:29;;;;;;;2.28;1.00;;;18.30;99.90;;;;;;5093163;28;20651;-86
2023/05/22 05:42:01;;;;;;;2.00;0.80;;;18.30;99.90;;;;;;5095168;28;20266;-85
2023/05/22 05:44:33;;;;;;;1.55;0.65;;;18.20;99.90;;;;;;5097233;28;20238;-84
2023/05/22 05:47:04;;;;;;;3.72;0.98;;;18.20;99.90;;;;;;5097129;28;20555;-85
2023/05/22 05:49:37;;;;;;;4.05;0.90;;;18.30;99.90;;;;;;5097062;28;20235;-84
2023/05/22 05:52:09;;;;;;;3.58;1.45;;;18.30;99.90;;;;;;5097192;28;20214;-84
2023/05/22 05:54:45;;;;;;;1.98;0.50;;;18.30;99.90;;;;;;5097056;28;20188;-84
2023/05/22 05:57:16;;;;;;;1.80;0.80;;;18.20;99.90;;;;;;5096832;28;20650;-84
2023/05/22 05:59:48;;;;;;;3.22;0.73;;;18.20;99.90;;;;;;5097024;28;20710;-84
2023/05/22 06:02:21;;;;;;;2.25;1.00;;;18.10;99.90;;;;;;5096919;28;20557;-84
2023/05/22 06:04:55;;;;;;;5.53;1.38;;;18.00;99.90;;;;;;5096614;28;20235;-84
2023/05/22 06:07:27;;;;;;;3.55;1.20;;;18.00;99.90;;;;;;5096833;28;20208;-84
2023/05/22 06:09:58;;;;;;;2.33;1.00;;;17.90;99.90;;;;;;5096784;28;20188;-83
2023/05/22 06:12:29;;;;;;;2.47;1.05;;;17.90;99.90;;;;;;5096618;28;20216;-79
2023/05/22 06:15:00;;;;;;;3.25;1.05;;;17.80;99.90;;;;;;5096696;28;20258;-84
2023/05/22 06:17:32;;;;;;;2.25;1.10;;;17.70;99.90;;;;;;5096551;28;20230;-84
2023/05/22 06:20:05;;;;;;;2.55;0.80;;;17.70;99.90;;;;;;5096646;28;20685;-85
2023/05/22 06:22:36;;;;;;;2.30;0.77;;;17.70;99.90;;;;;;5096610;28;20249;-85
2023/05/22 06:25:08;;;;;;;2.05;0.70;;;17.60;99.90;;;;;;5096718;28;20188;-84
2023/05/22 06:27:39;;;;;;;1.35;0.70;;;17.50;99.90;;;;;;5096812;28;20200;-84
2023/05/22 06:30:12;;;;;;;4.50;1.00;;;17.50;99.90;;;;;;5096294;28;20206;-84
2023/05/22 06:32:43;;;;;;;3.90;0.98;;;17.40;99.90;;;;;;5096281;28;20248;-84
2023/05/22 06:35:17;;;;;;;5.75;1.05;;;17.20;99.90;;;;;;5095987;28;20195;-84
2023/05/22 06:37:48;;;;;;;4.07;1.30;;;17.10;99.90;;;;;;5096250;28;20189;-83
2023/05/22 06:40:19;;;;;;;5.15;1.30;;;17.10;99.90;;;;;;5096367;28;20192;-85
2023/05/22 06:42:50;;;;;;;2.42;1.20;;;17.10;99.90;;;;;;5096210;28;20192;-83
2023/05/22 06:45:21;;;;;;;4.43;2.33;;;17.00;99.90;;;;;;5096139;28;20196;-83
2023/05/22 06:47:56;;;;;;;8.27;3.05;;;16.90;99.90;;;;;;5096739;28;20184;-82
2023/05/22 06:50:29;;;;;;;6.10;3.25;;;16.90;99.90;;;;;;5095868;28;20223;-82
2023/05/22 06:53:00;;;;;;;5.88;2.10;;;16.80;99.90;;;;;;5095271;28;20223;-82
2023/05/22 06:55:31;;;;;;;5.32;2.00;;;16.70;99.90;;;;;;5095771;28;20196;-82
2023/05/22 06:58:02;;;;;;;5.60;2.00;;;16.70;99.90;;;;;;5095188;28;20283;-83
2023/05/22 07:00:33;;;;;;;6.35;1.92;;;16.60;99.90;;;;;;5091870;28;20199;-83
2023/05/22 07:03:05;;;;;;;5.05;1.63;;;16.50;99.90;;;;;;5095486;28;20191;-82
2023/05/22 07:05:38;;;;;;;7.20;2.10;;;16.40;99.90;;;;;;5092329;28;20196;-79
2023/05/22 07:08:11;;;;;;;7.45;2.20;;;16.30;99.90;;;;;;5093970;28;20200;-84
2023/05/22 07:10:42;;;;;;;7.75;2.10;;;16.20;99.90;;;;;;5089047;28;20237;-83
2023/05/22 07:13:14;;;;;;;5.05;1.70;;;16.10;99.90;;;;;;5093241;28;20220;-81
2023/05/22 07:15:45;;;;;;;5.88;1.63;;;15.90;99.90;;;;;;5089510;28;20197;-82
2023/05/22 07:18:16;;;;;;;5.07;1.77;;;15.80;99.90;;;;;;5087582;28;20196;-82
2023/05/22 07:20:49;;;;;;;5.00;1.60;;;15.80;99.90;;;;;;5094404;28;20200;-84
2023/05/22 07:23:20;;;;;;;7.28;1.90;;;15.70;99.90;;;;;;5095326;28;20644;-84
2023/05/22 07:25:51;;;;;;;4.53;1.70;;;15.60;99.90;;;;;;5095279;28;20191;-84
2023/05/22 07:28:22;;;;;;;6.95;2.05;;;15.60;99.90;;;;;;5095248;28;20659;-84
2023/05/22 07:30:54;;;;;;;7.35;2.13;;;15.50;99.90;;;;;;5095248;28;20192;-85
2023/05/22 07:33:25;;;;;;;6.95;2.35;;;15.50;99.90;;;;;;5093377;28;20269;-86
2023/05/22 07:35:58;;;;;;;9.38;2.40;;;15.40;99.90;;;;;;5091758;28;20192;-84
2023/05/22 07:38:29;;;;;;;9.07;2.28;;;15.30;99.90;;;;;;5089317;28;20196;-88
2023/05/22 07:41:01;;;;;;;9.57;2.53;;;15.20;99.90;;;;;;5094969;28;20195;-88
2023/05/22 07:43:32;;;;;;;12.32;3.00;;;15.10;99.90;;;;;;5087649;28;20647;-84
2023/05/22 07:46:04;;;;;;;8.70;2.40;;;15.00;99.90;;;;;;5089037;28;20214;-87
2023/05/22 07:48:36;;;;;;;6.88;2.20;;;14.90;99.90;;;;;;5092360;28;20196;-83
2023/05/22 07:51:09;;;;;;;6.53;2.47;;;14.90;99.90;;;;;;5089197;28;20203;-85
2023/05/22 07:53:40;;;;;;;7.05;2.70;;;14.90;99.90;;;;;;5091081;28;20215;-89
2023/05/22 07:56:11;;;;;;;5.25;2.28;;;14.90;99.90;;;;;;5092068;28;20210;-88
2023/05/22 07:58:42;;;;;;;7.00;2.28;;;14.80;99.90;;;;;;5091268;28;20283;-82
2023/05/22 08:01:14;;;;;;;7.88;2.58;;;14.70;99.90;;;;;;5091510;28;20566;-81
2023/05/22 08:03:45;;;;;;;6.50;2.28;;;14.70;99.90;;;;;;5089806;28;20231;-82
2023/05/22 08:06:18;;;;;;;8.40;2.47;;;14.70;99.90;;;;;;5089366;28;20200;-80
2023/05/22 08:08:49;;;;;;;7.00;2.60;;;14.70;99.90;;;;;;5089230;28;20192;-81
2023/05/22 08:11:20;;;;;;;6.93;2.75;;;14.60;99.90;;;;;;5089987;28;20196;-83
2023/05/22 08:13:51;;;;;;;6.93;2.85;;;14.60;99.90;;;;;;5090321;28;20212;-82
2023/05/22 08:16:22;;;;;;;8.77;2.80;;;14.60;99.90;;;;;;5087541;28;20200;-83
2023/05/22 08:18:53;;;;;;;6.78;2.70;;;14.60;99.90;;;;;;5086331;28;20211;-83
2023/05/22 08:21:29;;;;;;;7.80;2.50;;;14.50;99.90;;;;;;5090791;28;20192;-80
2023/05/22 08:24:00;;;;;;;8.23;2.60;;;14.50;99.90;;;;;;5091173;28;20205;-81
2023/05/22 08:26:32;;;;;;;6.55;2.70;;;14.40;99.90;;;;;;5087505;28;20204;-82
2023/05/22 08:29:04;;;;;;;9.32;2.83;;;14.40;99.90;;;;;;5090909;28;20193;-82
2023/05/22 08:31:35;;;;;;;11.02;3.13;;;14.40;99.90;;;;;;5091136;28;20195;-80
2023/05/22 08:34:06;;;;;;;6.95;2.95;;;14.40;99.90;;;;;;5092382;28;20693;-81
2023/05/22 08:36:39;;;;;;;9.32;3.45;;;14.30;99.90;;;;;;5091205;28;20200;-82
2023/05/22 08:39:11;;;;;;;10.48;3.30;;;14.20;99.90;;;;;;5090832;28;20198;-82
2023/05/22 08:41:42;;;;;;;8.40;3.65;;;14.10;99.90;;;;;;5090551;28;20655;-80
2023/05/22 08:44:14;;;;;;;7.78;3.30;;;14.10;99.90;;;;;;5092732;28;20283;-79
2023/05/22 08:46:48;;;;;;;9.43;3.22;;;14.10;99.90;;;;;;5085521;28;20246;-80
2023/05/22 08:49:19;;;;;;;13.00;3.97;;;14.00;99.90;;;;;;5089099;28;20280;-82
2023/05/22 08:51:58;;;;;;;9.88;3.67;;;14.00;99.90;;;;;;5092470;28;20196;-83
2023/05/22 08:54:30;;;;;;;9.02;3.50;;;14.00;99.90;;;;;;5090239;28;20220;-83
2023/05/22 08:57:02;;;;;;;10.68;3.30;;;13.90;99.90;;;;;;5092894;28;20192;-81
2023/05/22 08:59:33;;;;;;;10.40;3.13;;;13.90;99.90;;;;;;5091347;28;20197;-81
2023/05/22 09:02:06;;;;;;;10.40;3.40;;;13.90;99.90;;;;;;5093150;28;20192;-81
2023/05/22 09:04:37;;;;;;;11.93;3.30;;;13.90;99.90;;;;;;5091107;28;20584;-81
2023/05/22 09:07:10;;;;;;;11.80;3.88;;;13.80;99.90;;;;;;5086520;28;20214;-83
2023/05/22 09:09:41;;;;;;;12.75;3.70;;;13.80;99.90;;;;;;5088084;28;20234;-83
2023/05/22 09:12:14;;;;;;;11.23;3.85;;;13.70;99.90;;;;;;5088356;28;20572;-83
2023/05/22 09:14:45;;;;;;;9.98;4.18;;;13.70;99.90;;;;;;5090001;28;20223;-83
2023/05/22 09:17:19;;;;;;;12.70;4.10;;;13.70;99.90;;;;;;5088076;28;20200;-82
2023/05/22 09:19:51;;;;;;;11.45;4.20;;;13.60;99.90;;;;;;5088490;28;20200;-86
2023/05/22 09:22:25;;;;;;;12.23;4.18;;;13.60;99.90;;;;;;5091486;28;20575;-83
2023/05/22 09:24:58;;;;;;;11.75;4.25;;;13.60;99.90;;;;;;5089010;28;20202;-85
2023/05/22 09:27:29;;;;;;;11.93;3.90;;;13.60;99.90;;;;;;5072317;28;20596;-82
2023/05/22 09:30:00;;;;;;;14.13;4.40;;;13.60;99.90;;;;;;5089452;28;20196;-83
2023/05/22 09:32:33;;;;;;;10.70;3.92;;;13.50;99.90;;;;;;5090950;28;20211;-83
2023/05/22 09:35:08;;;;;;;13.20;4.20;;;13.50;99.90;;;;;;5080611;28;20212;-82
2023/05/22 09:37:41;;;;;;;14.52;4.47;;;13.40;99.90;;;;;;5091080;28;20196;-81
2023/05/22 09:40:14;;;;;;;13.57;4.78;;;13.40;99.90;;;;;;5091198;28;20207;-81
2023/05/22 09:42:47;;;;;;;10.02;4.07;;;13.40;99.90;;;;;;5092938;28;20241;-81
2023/05/22 09:45:23;;;;;;;12.60;4.43;;;13.50;99.90;;;;;;5090623;28;20200;-82
2023/05/22 09:47:55;;;;;;;11.18;4.07;;;13.40;99.90;;;;;;5090545;28;20249;-81
2023/05/22 09:50:26;;;;;;;12.15;4.47;;;13.40;99.90;;;;;;5090128;28;20582;-81
2023/05/22 09:53:02;;;;;;;8.45;3.97;;;13.40;99.90;;;;;;5079599;28;20198;-81
2023/05/22 09:55:35;;;;;;;9.20;4.22;;;13.30;99.90;;;;;;5091637;28;20242;-82
2023/05/22 09:58:08;;;;;;;12.18;4.47;;;13.30;99.90;;;;;;5089819;28;20207;-81
2023/05/22 10:00:39;;;;;;;10.25;4.82;;;13.30;99.90;;;;;;5090029;28;20199;-81
2023/05/22 10:03:14;;;;;;;11.98;5.20;;;13.20;99.90;;;;;;5089035;28;20199;-81
2023/05/22 10:05:50;;;;;;;15.02;5.00;;;13.20;99.90;;;;;;5092570;28;20253;-81
2023/05/22 10:08:26;;;;;;;10.25;4.55;;;13.10;99.90;;;;;;5091074;28;20224;-81
2023/05/22 10:10:57;;;;;;;12.27;4.90;;;13.10;99.90;;;;;;5090696;28;20192;-82
2023/05/22 10:13:30;;;;;;;11.23;4.68;;;13.00;99.90;;;;;;5089108;28;20694;-81
2023/05/22 10:16:01;;;;;;;10.45;4.60;;;13.00;99.90;;;;;;5092558;28;20597;-81
2023/05/22 10:18:33;;;;;;;12.43;4.95;;;13.00;99.90;;;;;;5089532;28;20196;-81
2023/05/22 10:21:04;;;;;;;12.93;5.18;;;13.00;99.90;;;;;;5090816;28;20192;-81
2023/05/22 10:23:38;;;;;;;9.90;4.65;;;13.00;99.90;;;;;;5089439;28;20196;-81
2023/05/22 10:26:10;;;;;;;13.13;5.95;;;13.00;99.90;;;;;;5088017;28;20192;-82
2023/05/22 10:28:46;;;;;;;13.60;5.55;;;12.90;99.90;;;;;;5089328;28;20325;-81
2023/05/22 10:31:37;;;;;;;14.40;6.20;;;12.90;99.90;;;;;;5095200;28;20199;-81
2023/05/22 10:34:12;;;;;;;14.18;6.20;;;12.90;99.90;;;;;;5087096;28;20584;-81
2023/05/22 10:36:52;;;;;;;14.68;6.68;;;12.90;99.90;;;;;;5082453;28;20654;-82
2023/05/22 10:39:42;;;;;;;12.48;6.38;;;12.90;99.90;;;;;;5095142;28;20199;-83
2023/05/22 10:42:16;;;;;;;15.90;6.75;;;12.90;99.90;;;;;;5092966;28;20659;-85
2023/05/22 10:44:48;;;;;;;16.17;6.88;;;12.90;99.90;;;;;;5095270;28;20192;-81
2023/05/22 10:47:19;;;;;;;12.25;6.50;;;12.80;99.90;;;;;;5093730;28;20192;-80
2023/05/22 10:49:50;;;;;;;13.30;5.90;;;12.80;99.90;;;;;;5094377;28;20317;-81
2023/05/22 10:53:13;;;;;;;12.48;6.50;;;12.80;99.90;;;;;;5095151;28;20200;-84
2023/05/22 10:55:52;;;;;;;13.13;6.32;;;12.80;99.90;;;;;;5092708;28;20234;-83
2023/05/22 10:58:30;;;;;;;14.13;6.15;;;12.70;99.90;;;;;;5093414;28;20196;-86
2023/05/22 11:01:17;;;;;;;16.38;6.70;;;12.80;99.90;;;;;;5094725;28;20562;-88
2023/05/22 11:03:58;;;;;;;12.02;5.88;;;12.70;99.90;;;;;;5087227;28;20230;-87
2023/05/22 11:06:40;;;;;;;9.85;5.75;;;12.70;99.90;;;;;;5090273;28;20203;-81
2023/05/22 11:09:30;;;;;;;14.63;5.18;;;12.60;99.90;;;;;;5091999;28;20200;-81
2023/05/22 11:12:23;;;;;;;12.05;5.10;;;12.60;99.90;;;;;;5085847;28;20215;-80
2023/05/22 11:15:00;;;;;;;16.98;5.20;;;12.50;99.90;;;;;;5091594;28;20213;-80
2023/05/22 11:17:32;;;;;;;11.60;5.03;;;12.50;99.90;;;;;;5093051;28;20195;-80
2023/05/22 11:20:06;;;;;;;13.18;5.63;;;12.50;99.90;;;;;;5093641;28;20192;-81
2023/05/22 11:22:39;;;;;;;11.88;5.30;;;12.50;99.90;;;;;;5093988;28;20204;-80
2023/05/22 11:25:17;;;;;;;11.48;5.35;;;12.50;99.90;;;;;;5092794;28;20192;-80
2023/05/22 11:27:50;;;;;;;12.57;4.95;;;12.50;99.90;;;;;;5095414;28;20291;-81
2023/05/22 11:30:21;;;;;;;15.15;5.47;;;12.40;99.90;;;;;;5094951;28;20196;-80
2023/05/22 11:32:53;;;;;;;10.85;5.15;;;12.40;99.90;;;;;;5095188;28;20651;-80
2023/05/22 11:35:24;;;;;;;9.88;4.78;;;12.40;99.90;;;;;;5094532;28;20224;-82
2023/05/22 11:37:57;;;;;;;11.20;5.30;;;12.40;99.90;;;;;;5093495;28;20562;-80
2023/05/22 11:40:30;;;;;;;11.52;5.20;;;12.30;99.90;;;;;;5092219;28;20207;-80
2023/05/22 11:43:03;;;;;;;14.40;5.22;;;12.30;99.90;;;;;;5093144;28;20192;-80
2023/05/22 11:45:38;;;;;;;11.68;4.65;;;12.20;99.90;;;;;;5093838;28;20721;-80
2023/05/22 11:48:11;;;;;;;10.93;4.80;;;12.20;99.90;;;;;;5094432;28;20719;-80
2023/05/22 11:50:44;;;;;;;10.27;5.22;;;12.20;99.90;;;;;;5093194;28;20199;-80
2023/05/22 11:53:16;;;;;;;15.40;6.00;;;12.20;99.90;;;;;;5094288;28;20605;-80
2023/05/22 11:55:50;;;;;;;12.25;5.65;;;12.20;99.90;;;;;;5093783;28;20212;-79
2023/05/22 11:58:28;;;;;;;10.73;5.30;;;12.20;99.90;;;;;;5093067;28;20246;-79
2023/05/22 12:01:03;;;;;;;11.77;5.55;;;12.10;99.90;;;;;;5094151;28;20558;-78
2023/05/22 12:03:34;;;;;;;14.57;5.25;;;12.10;99.90;;;;;;5093822;28;20597;-79
2023/05/22 12:06:07;;;;;;;10.70;5.13;;;12.10;99.90;;;;;;5093220;28;20214;-80
2023/05/22 12:08:38;;;;;;;10.38;5.10;;;12.00;99.90;;;;;;5083710;28;20192;-79
2023/05/22 12:11:13;;;;;;;13.18;5.50;;;12.00;99.90;;;;;;5093863;28;20200;-80
2023/05/22 12:13:46;;;;;;;15.00;5.78;;;12.00;99.90;;;;;;5093103;28;20541;-80
2023/05/22 12:16:24;;;;;;;14.57;6.68;;;11.90;99.90;;;;;;5092959;28;20211;-79
2023/05/22 12:18:56;;;;;;;14.73;7.18;;;11.80;99.90;;;;;;5093689;28;20219;-78
2023/05/22 12:21:31;;;;;;;22.88;10.63;;;11.80;99.90;;;;;;5092628;28;20200;-80
2023/05/22 12:24:06;;;;;;;24.67;11.68;;;11.70;99.90;;;;;;5092713;28;20210;-78
2023/05/22 12:26:38;;;;;;;19.40;10.52;;;11.70;99.90;;;;;;5092430;28;20304;-79
2023/05/22 12:29:12;;;;;;;19.40;11.13;;;11.60;99.90;;;;;;5074246;28;20208;-79
2023/05/22 12:31:45;;;;;;;23.35;12.10;;;11.50;99.90;;;;;;5092041;28;20196;-78
2023/05/22 12:34:17;;;;;;;22.20;11.10;;;11.50;99.90;;;;;;5089465;28;20200;-78
2023/05/22 12:36:50;;;;;;;26.25;11.73;;;11.50;99.90;;;;;;5077547;28;20201;-78
2023/05/22 12:39:21;;;;;;;19.67;10.00;;;11.50;99.90;;;;;;5085253;28;20703;-79
2023/05/22 12:41:52;;;;;;;16.30;9.35;;;11.50;99.90;;;;;;5093420;28;20196;-79
2023/05/22 12:44:25;;;;;;;16.60;8.07;;;11.40;99.90;;;;;;5093852;28;20189;-79
2023/05/22 12:46:56;;;;;;;14.95;7.75;;;11.40;99.90;;;;;;5093844;28;20538;-78
2023/05/22 12:49:27;;;;;;;14.63;7.15;;;11.40;99.90;;;;;;5093706;28;20570;-80
2023/05/22 12:51:58;;;;;;;14.93;7.38;;;11.40;99.90;;;;;;5092333;28;20211;-79
2023/05/22 12:54:30;;;;;;;14.73;7.70;;;11.40;99.90;;;;;;5091491;28;20200;-81
2023/05/22 12:57:01;;;;;;;13.05;7.20;;;11.30;99.90;;;;;;5091561;28;20192;-80
2023/05/22 12:59:35;;;;;;;15.30;7.22;;;11.30;99.90;;;;;;5093251;28;20199;-80
2023/05/22 13:02:07;;;;;;;13.00;6.60;;;11.30;99.90;;;;;;5092282;28;20271;-80
2023/05/22 13:04:38;;;;;;;15.82;7.00;;;11.30;99.90;;;;;;5092676;28;20236;-80
2023/05/22 13:07:09;;;;;;;13.80;7.05;;;11.30;99.90;;;;;;5092198;28;20197;-79
2023/05/22 13:09:40;;;;;;;15.60;6.55;;;11.30;99.90;;;;;;5092635;28;20192;-79
2023/05/22 13:12:12;;;;;;;12.63;6.85;;;11.30;99.90;;;;;;5092525;28;20196;-78